Tarija Airport

About
Name: Tarija Airport
Identifier:  TJA/SLTJ
Serves:  Tarija , Bolivia
Public/Private:  Civil/Military
Local Time:  16. Sep 02:42 UTC-04
Description: Capitán Oriel Lea Plaza Airport is an airport serving Tarija, the capital of the Tarija Department of Bolivia. The airport is in the southeastern section of the city, which is within a basin of the Cordillera Central mountain range. There is distant mountainous terrain in all quadrants.
Source: Wikipedia
Location
Runways
Identifier Length (m/ft) Surface
13/31 3,050/10,007 Asphalt
Statistics
Flights per Day:
7 flights
Distance: 502km (312mi)
Flights delayed:
92% (0 flights per day delayed)
Delay Average: 10 minutes
Current Weather
 21 C (Humidity: 56%)
  0kt (0km/h / 0mph) from 0°
  9km (6 mi.)
 METAR SLTJ 160400Z 00000KT 9999 NSC 21/12 Q1015

Current Flights

Current Delays

Departures
N/A
Arrivals
N/A

Destinations

Top Destinations
Airport Flights
per week
Seats
per week
  Cochabamba (CBB) 16 1,111 2 158
  Santa Cruz (VVI) 4 310 0 44
  La Paz (LPB) 4 353 0 50

Airlines & Planes

Top Airlines
Airline Flights
per Day
Seats
per Day
  Boliviana de Aviación (BoA) 3 253
Top Plane Types
Model Flights Seats
Boeing B737-300 3.3/day 199/day 199.26666666666668
Boeing B737-700 0.4/day 54/day 54.4